Time;durP1;ratioP1;P1;durP2;ratioP2;P2;SDS_P1;SDS_P2;PMS_P1;PMS_P2;Temp;Humidity;BMP_temperature;BMP_pressure;BME280_temperature;BME280_humidity;BME280_pressure;Samples;Min_cycle;Max_cycle;Signal;HPM_P1;HPM_P2
2021/10/20 00:00:44;;;;;;;51.97;39.92;;;7.20;99.90;;;;;;5084789;28;20036;-49
2021/10/20 00:03:09;;;;;;;47.97;39.95;;;7.40;99.90;;;;;;5071704;28;20472;-49
2021/10/20 00:05:35;;;;;;;51.83;39.55;;;7.40;99.90;;;;;;5071457;28;20044;-50
2021/10/20 00:08:06;;;;;;;63.22;49.50;;;7.40;99.90;;;;;;5071204;28;20070;-50
2021/10/20 00:10:33;;;;;;;64.75;48.20;;;7.40;99.90;;;;;;5072723;28;20107;-49
2021/10/20 00:12:58;;;;;;;58.90;44.05;;;7.20;99.90;;;;;;5071382;28;20090;-50
2021/10/20 00:15:24;;;;;;;57.58;43.80;;;7.00;99.90;;;;;;5071591;28;20468;-49
2021/10/20 00:17:50;;;;;;;63.10;45.38;;;6.90;99.90;;;;;;5072055;28;20032;-50
2021/10/20 00:20:21;;;;;;;60.40;40.90;;;6.90;99.90;;;;;;5071928;28;21000;-50
2021/10/20 00:22:48;;;;;;;56.45;42.70;;;6.80;99.90;;;;;;5074299;28;20068;-50
2021/10/20 00:25:15;;;;;;;50.42;37.08;;;6.80;99.90;;;;;;5069883;28;20562;-51
2021/10/20 00:27:41;;;;;;;44.47;33.35;;;7.00;99.90;;;;;;5071923;28;20112;-50
2021/10/20 00:30:08;;;;;;;43.28;29.05;;;7.20;99.90;;;;;;5072419;28;20099;-50
2021/10/20 00:32:34;;;;;;;37.00;29.05;;;7.20;99.90;;;;;;5071586;28;20048;-51
2021/10/20 00:35:00;;;;;;;38.80;28.13;;;7.30;99.90;;;;;;5071452;28;20059;-50
2021/10/20 00:37:25;;;;;;;35.03;27.10;;;7.30;99.90;;;;;;5087387;28;20033;-50
2021/10/20 00:39:51;;;;;;;33.90;24.85;;;7.30;99.90;;;;;;5071814;28;20044;-50
2021/10/20 00:42:19;;;;;;;32.72;23.67;;;7.40;99.90;;;;;;5071013;28;20111;-49
2021/10/20 00:44:49;;;;;;;28.70;21.88;;;7.30;99.90;;;;;;5071541;28;20395;-51
2021/10/20 00:47:16;;;;;;;30.67;21.77;;;7.60;99.90;;;;;;5071577;28;20024;-49
2021/10/20 00:49:42;;;;;;;29.40;21.13;;;7.80;99.90;;;;;;5069794;28;20040;-50
2021/10/20 00:52:08;;;;;;;32.17;22.85;;;7.90;99.90;;;;;;5067317;28;20082;-50
2021/10/20 00:54:36;;;;;;;30.90;21.95;;;8.00;99.90;;;;;;5053541;28;20033;-49
2021/10/20 00:57:02;;;;;;;28.17;22.58;;;8.30;99.90;;;;;;5070659;28;20154;-50
2021/10/20 00:59:28;;;;;;;30.38;23.85;;;8.40;99.90;;;;;;5075247;28;20064;-50
2021/10/20 01:01:54;;;;;;;30.85;25.67;;;8.60;99.90;;;;;;5039624;28;20510;-50
2021/10/20 01:04:21;;;;;;;37.00;27.77;;;8.70;99.90;;;;;;5056612;28;20044;-50
2021/10/20 01:06:47;;;;;;;37.10;28.55;;;8.60;99.90;;;;;;5069283;28;20404;-50
2021/10/20 01:09:13;;;;;;;39.38;26.77;;;8.50;99.90;;;;;;5072166;28;20036;-50
2021/10/20 01:11:39;;;;;;;32.47;25.08;;;8.40;99.90;;;;;;5056464;28;20476;-50
2021/10/20 01:14:04;;;;;;;35.63;27.30;;;8.60;99.90;;;;;;5056279;28;20040;-49
2021/10/20 01:16:30;;;;;;;32.10;21.63;;;8.80;99.90;;;;;;5056798;28;20128;-49
2021/10/20 01:18:56;;;;;;;28.75;22.27;;;8.90;99.90;;;;;;5055748;28;20088;-50
2021/10/20 01:21:22;;;;;;;31.45;23.48;;;9.10;99.90;;;;;;5073244;28;20032;-49
2021/10/20 01:23:49;;;;;;;37.33;26.40;;;9.10;99.90;;;;;;5074934;28;20428;-50
2021/10/20 01:26:16;;;;;;;32.40;25.05;;;9.10;99.90;;;;;;5056074;28;20079;-50
2021/10/20 01:28:43;;;;;;;33.90;24.27;;;9.10;99.90;;;;;;5056750;28;20116;-50
2021/10/20 01:31:09;;;;;;;32.38;23.60;;;9.10;99.90;;;;;;5074321;28;20051;-49
2021/10/20 01:33:34;;;;;;;30.98;24.80;;;9.00;99.90;;;;;;5074287;28;20028;-50
2021/10/20 01:36:00;;;;;;;32.75;24.83;;;9.00;99.90;;;;;;5055506;28;20106;-50
2021/10/20 01:38:26;;;;;;;32.17;25.70;;;8.90;99.90;;;;;;5073219;28;20029;-50
2021/10/20 01:40:52;;;;;;;34.38;25.83;;;9.00;99.90;;;;;;5074642;28;20075;-49
2021/10/20 01:43:18;;;;;;;31.98;25.73;;;9.00;99.90;;;;;;5074886;28;20035;-51
2021/10/20 01:45:43;;;;;;;31.88;23.25;;;9.00;99.90;;;;;;5079288;28;20120;-50
2021/10/20 01:48:09;;;;;;;30.52;24.27;;;9.00;99.90;;;;;;5074055;28;20460;-50
2021/10/20 01:50:35;;;;;;;27.73;21.48;;;9.00;99.90;;;;;;5073917;28;20036;-49
2021/10/20 01:53:01;;;;;;;29.70;22.40;;;9.00;99.90;;;;;;5074937;28;20472;-50
2021/10/20 01:55:27;;;;;;;27.92;22.30;;;9.00;99.90;;;;;;5073873;28;20028;-50
2021/10/20 01:57:53;;;;;;;29.15;20.75;;;8.60;99.90;;;;;;5022681;28;20373;-49
2021/10/20 02:00:19;;;;;;;31.70;22.88;;;7.90;99.90;;;;;;5038229;28;20396;-50
2021/10/20 02:02:45;;;;;;;30.13;23.02;;;7.80;99.90;;;;;;5051608;28;20040;-50
2021/10/20 02:05:13;;;;;;;28.98;22.13;;;7.40;99.90;;;;;;5050796;28;20451;-50
2021/10/20 02:07:40;;;;;;;28.85;21.98;;;7.40;99.90;;;;;;5051829;28;20040;-51
2021/10/20 02:10:15;;;;;;;30.05;22.00;;;7.70;99.90;;;;;;5050419;28;20033;-50
2021/10/20 02:12:42;;;;;;;29.73;23.58;;;7.70;99.90;;;;;;5051030;28;20057;-50
2021/10/20 02:15:08;;;;;;;30.58;22.25;;;7.70;99.90;;;;;;5051073;28;20510;-49
2021/10/20 02:17:34;;;;;;;27.13;19.98;;;7.50;99.90;;;;;;5050499;28;20412;-49
2021/10/20 02:20:00;;;;;;;25.75;19.65;;;7.00;99.90;;;;;;5050968;28;20037;-50
2021/10/20 02:22:26;;;;;;;25.15;18.27;;;6.80;99.90;;;;;;5051701;28;20562;-49
2021/10/20 02:24:52;;;;;;;25.83;17.85;;;6.60;99.90;;;;;;5050889;28;20017;-50
2021/10/20 02:27:18;;;;;;;25.33;20.00;;;6.60;99.90;;;;;;5050875;28;20043;-50
2021/10/20 02:29:44;;;;;;;26.02;19.10;;;6.60;99.90;;;;;;5034732;28;20465;-51
2021/10/20 02:32:09;;;;;;;26.35;18.60;;;6.80;99.90;;;;;;5050597;28;20396;-50
2021/10/20 02:34:35;;;;;;;28.65;19.77;;;6.80;99.90;;;;;;5069685;28;20090;-50
2021/10/20 02:37:01;;;;;;;25.85;19.65;;;6.60;99.90;;;;;;5054479;28;20028;-50
2021/10/20 02:39:27;;;;;;;26.33;17.90;;;6.60;99.90;;;;;;5073640;28;20439;-49
2021/10/20 02:41:53;;;;;;;25.20;17.98;;;6.60;99.90;;;;;;5054372;28;20053;-51
2021/10/20 02:44:18;;;;;;;22.13;17.77;;;6.70;99.90;;;;;;5059150;28;20116;-49
2021/10/20 02:46:44;;;;;;;22.73;18.70;;;6.60;99.90;;;;;;5073061;28;20082;-50
2021/10/20 02:49:10;;;;;;;21.58;18.17;;;6.70;99.90;;;;;;5071567;28;20460;-49
2021/10/20 02:51:36;;;;;;;25.77;19.75;;;6.90;99.90;;;;;;5073515;28;20055;-50
2021/10/20 02:54:02;;;;;;;25.42;18.38;;;7.10;99.90;;;;;;5073108;28;20051;-50
2021/10/20 02:56:28;;;;;;;24.77;18.00;;;7.10;99.90;;;;;;5088017;28;20041;-49
2021/10/20 02:58:55;;;;;;;22.90;16.95;;;6.80;99.90;;;;;;5053806;28;20036;-50
2021/10/20 03:01:21;;;;;;;26.60;17.92;;;6.30;99.90;;;;;;5072919;28;20032;-50
2021/10/20 03:03:47;;;;;;;26.10;17.52;;;6.10;99.90;;;;;;5072757;28;20543;-50
2021/10/20 03:06:16;;;;;;;22.42;16.98;;;6.00;99.90;;;;;;5053924;28;20045;-50
2021/10/20 03:08:43;;;;;;;25.80;19.23;;;6.00;99.90;;;;;;5053823;28;20041;-50
2021/10/20 03:11:09;;;;;;;25.42;20.42;;;6.00;99.90;;;;;;5070545;28;20037;-50
2021/10/20 03:13:35;;;;;;;26.00;19.00;;;6.20;99.90;;;;;;5072743;28;20530;-50
2021/10/20 03:16:00;;;;;;;34.97;24.40;;;6.30;99.90;;;;;;5072775;28;20020;-51
2021/10/20 03:18:26;;;;;;;32.25;21.95;;;6.70;99.90;;;;;;5088423;28;20039;-49
2021/10/20 03:20:52;;;;;;;28.17;22.55;;;7.10;99.90;;;;;;5072329;28;20086;-50
2021/10/20 03:23:17;;;;;;;33.60;26.77;;;7.30;99.90;;;;;;5067949;28;20120;-49
2021/10/20 03:25:43;;;;;;;35.17;27.40;;;7.10;99.90;;;;;;5072711;28;20028;-50
2021/10/20 03:28:09;;;;;;;30.67;26.15;;;7.00;99.90;;;;;;5087974;28;20036;-49
2021/10/20 03:30:35;;;;;;;28.42;24.15;;;6.80;99.90;;;;;;5037085;28;20028;-50
2021/10/20 03:33:00;;;;;;;33.33;23.63;;;6.80;99.90;;;;;;5054135;28;20036;-49
2021/10/20 03:35:26;;;;;;;46.85;33.58;;;7.20;99.90;;;;;;5072503;28;20154;-50
2021/10/20 03:37:52;;;;;;;42.45;30.25;;;7.30;99.90;;;;;;5053438;28;20060;-50
2021/10/20 03:40:18;;;;;;;34.47;28.45;;;7.50;99.90;;;;;;5071635;28;20500;-50
2021/10/20 03:42:44;;;;;;;35.55;24.02;;;7.70;99.90;;;;;;5070970;28;20055;-49
2021/10/20 03:45:11;;;;;;;27.88;20.10;;;7.90;99.90;;;;;;5072269;28;20032;-51
2021/10/20 03:47:37;;;;;;;30.00;20.60;;;8.10;99.90;;;;;;5072753;28;20028;-49
2021/10/20 03:50:04;;;;;;;28.20;20.45;;;8.10;99.90;;;;;;5072779;28;20028;-50
2021/10/20 03:52:30;;;;;;;27.00;18.63;;;8.10;99.90;;;;;;5036826;28;20036;-50
2021/10/20 03:54:55;;;;;;;31.00;18.75;;;8.00;99.90;;;;;;5072273;28;20376;-49
2021/10/20 03:57:21;;;;;;;26.33;18.70;;;8.00;99.90;;;;;;5072229;28;20032;-50
2021/10/20 03:59:47;;;;;;;25.25;18.15;;;8.00;99.90;;;;;;5072247;28;20028;-49
2021/10/20 04:02:14;;;;;;;29.25;19.52;;;8.10;99.90;;;;;;5053222;28;20698;-50
2021/10/20 04:04:40;;;;;;;26.77;19.65;;;8.20;99.90;;;;;;5087542;28;20044;-51
2021/10/20 04:07:06;;;;;;;25.75;18.98;;;8.20;99.90;;;;;;5071970;28;20482;-50
2021/10/20 04:09:32;;;;;;;27.52;18.25;;;8.20;99.90;;;;;;5053361;28;20060;-49
2021/10/20 04:11:58;;;;;;;29.13;20.40;;;8.30;99.90;;;;;;5072042;28;20029;-50
2021/10/20 04:14:24;;;;;;;26.85;19.83;;;8.20;99.90;;;;;;5087402;28;20506;-49
2021/10/20 04:16:50;;;;;;;27.67;21.58;;;8.20;99.90;;;;;;5053366;28;20548;-50
2021/10/20 04:19:16;;;;;;;24.50;19.55;;;8.30;99.90;;;;;;5064648;28;20134;-50
2021/10/20 04:21:41;;;;;;;28.13;20.30;;;8.30;99.90;;;;;;5070836;28;20119;-50
2021/10/20 04:24:07;;;;;;;23.45;18.45;;;8.40;99.90;;;;;;5071704;28;20081;-50
2021/10/20 04:26:33;;;;;;;22.48;17.33;;;7.90;99.90;;;;;;5072379;28;20036;-49
2021/10/20 04:28:59;;;;;;;22.80;17.58;;;7.90;99.90;;;;;;5071722;28;20021;-50
2021/10/20 04:31:24;;;;;;;20.33;16.63;;;8.00;99.90;;;;;;5069596;28;20040;-51
2021/10/20 04:33:50;;;;;;;23.52;16.63;;;8.10;99.90;;;;;;5075338;28;20465;-49
2021/10/20 04:36:16;;;;;;;45.20;38.08;;;8.00;99.90;;;;;;5075046;28;20024;-50
2021/10/20 04:38:42;;;;;;;26.38;20.92;;;7.70;99.90;;;;;;5074777;28;20041;-50
2021/10/20 04:41:08;;;;;;;29.60;19.92;;;7.40;99.90;;;;;;5075822;28;20028;-49
2021/10/20 04:43:33;;;;;;;32.05;19.45;;;7.60;99.90;;;;;;5091339;28;20040;-49
2021/10/20 04:45:59;;;;;;;24.65;18.45;;;7.80;99.90;;;;;;5075509;28;20100;-50
2021/10/20 04:48:25;;;;;;;30.23;21.85;;;7.90;99.90;;;;;;5073142;28;20060;-49
2021/10/20 04:50:51;;;;;;;27.67;20.38;;;7.60;99.90;;;;;;5075677;28;20095;-50
2021/10/20 04:53:16;;;;;;;31.15;21.20;;;7.30;99.90;;;;;;5023902;28;20550;-50
2021/10/20 04:55:42;;;;;;;30.75;19.73;;;7.00;99.90;;;;;;5056732;28;20037;-49
2021/10/20 04:58:08;;;;;;;33.53;22.40;;;7.20;99.90;;;;;;5075087;28;20055;-50
2021/10/20 05:00:36;;;;;;;31.30;22.10;;;7.00;99.90;;;;;;5075172;28;20111;-50
2021/10/20 05:03:02;;;;;;;26.63;20.67;;;6.80;99.90;;;;;;5056044;28;20052;-50
2021/10/20 05:05:29;;;;;;;29.50;20.40;;;6.90;99.90;;;;;;5074975;28;20044;-49
2021/10/20 05:08:01;;;;;;;32.97;19.65;;;7.10;99.90;;;;;;5075878;28;20060;-49
2021/10/20 05:10:27;;;;;;;26.63;18.73;;;6.80;99.90;;;;;;5073004;28;20032;-50
2021/10/20 05:12:56;;;;;;;25.75;18.25;;;6.50;99.90;;;;;;5073045;28;20029;-49
2021/10/20 05:15:22;;;;;;;28.25;18.73;;;6.20;99.90;;;;;;5073786;28;20027;-49
2021/10/20 05:17:48;;;;;;;26.23;20.00;;;5.90;99.90;;;;;;5075021;28;20115;-49
2021/10/20 05:20:16;;;;;;;25.10;19.40;;;5.80;99.90;;;;;;5075155;28;20123;-50
2021/10/20 05:22:43;;;;;;;25.88;20.52;;;6.00;99.90;;;;;;5056050;28;20033;-50
2021/10/20 05:25:13;;;;;;;25.77;19.50;;;6.30;99.90;;;;;;5074754;28;20059;-50
2021/10/20 05:27:39;;;;;;;30.95;21.58;;;6.40;99.90;;;;;;5075062;28;20468;-50
2021/10/20 05:30:06;;;;;;;22.38;18.40;;;6.60;99.90;;;;;;5073894;28;20024;-50
2021/10/20 05:32:32;;;;;;;35.42;20.38;;;6.40;99.90;;;;;;5074442;28;20437;-49
2021/10/20 05:34:58;;;;;;;24.05;19.08;;;6.20;99.90;;;;;;5073923;28;20103;-49
2021/10/20 05:37:24;;;;;;;28.42;18.85;;;6.10;99.90;;;;;;5074969;28;20029;-50
2021/10/20 05:39:52;;;;;;;24.30;16.27;;;6.80;99.90;;;;;;5055475;28;20117;-49
2021/10/20 05:42:18;;;;;;;21.52;15.20;;;8.20;99.90;;;;;;5074740;28;20132;-50
2021/10/20 05:44:44;;;;;;;19.75;13.57;;;10.00;99.90;;;;;;5069562;28;20039;-49
2021/10/20 05:47:11;;;;;;;20.77;14.27;;;11.40;99.90;;;;;;5072511;28;20037;-50
2021/10/20 05:49:37;;;;;;;18.02;13.75;;;12.20;99.90;;;;;;5073869;28;20017;-50
2021/10/20 05:52:03;;;;;;;17.15;12.30;;;13.40;99.90;;;;;;5074180;28;20073;-50
2021/10/20 05:54:29;;;;;;;17.55;13.20;;;14.80;99.00;;;;;;5074409;28;20027;-50
2021/10/20 05:56:55;;;;;;;18.38;13.15;;;13.80;98.00;;;;;;5071446;28;20020;-50
2021/10/20 05:59:22;;;;;;;22.05;13.68;;;13.70;99.40;;;;;;5073997;28;20107;-50
2021/10/20 06:01:49;;;;;;;35.70;24.23;;;13.40;99.20;;;;;;5088524;28;20519;-50
2021/10/20 06:04:16;;;;;;;28.52;22.98;;;13.50;98.90;;;;;;5073820;28;20063;-51
2021/10/20 06:06:43;;;;;;;21.00;15.45;;;13.50;98.90;;;;;;5073560;28;20041;-51
2021/10/20 06:09:08;;;;;;;20.42;13.68;;;13.20;99.60;;;;;;5073591;28;20518;-50
2021/10/20 06:11:34;;;;;;;18.08;12.90;;;13.60;99.70;;;;;;5073676;28;20021;-51
2021/10/20 06:14:00;;;;;;;23.35;18.45;;;14.40;99.30;;;;;;5055362;28;20082;-50
2021/10/20 06:16:26;;;;;;;18.80;13.52;;;16.30;99.10;;;;;;5071563;28;20033;-50
2021/10/20 06:18:52;;;;;;;15.70;11.65;;;17.40;96.50;;;;;;5089105;28;20032;-48
2021/10/20 06:21:18;;;;;;;14.43;12.18;;;18.00;96.00;;;;;;5072744;28;20032;-50
2021/10/20 06:23:43;;;;;;;14.93;10.88;;;19.80;93.20;;;;;;5068527;28;20063;-50
2021/10/20 06:26:09;;;;;;;13.63;10.68;;;19.20;91.20;;;;;;5072298;28;20532;-50
2021/10/20 06:28:35;;;;;;;13.05;11.10;;;19.60;91.70;;;;;;5073199;28;20075;-50
2021/10/20 06:31:01;;;;;;;14.02;11.02;;;19.10;91.70;;;;;;5073168;28;20044;-51
2021/10/20 06:33:27;;;;;;;14.85;11.32;;;20.60;91.20;;;;;;5073115;28;20031;-49
2021/10/20 06:35:54;;;;;;;14.55;12.98;;;21.70;90.20;;;;;;5020654;28;20037;-50
2021/10/20 06:38:21;;;;;;;13.50;11.90;;;23.20;88.30;;;;;;5074071;28;20468;-51
2021/10/20 06:40:48;;;;;;;12.15;10.85;;;24.40;85.50;;;;;;5072612;28;20036;-49
2021/10/20 06:43:14;;;;;;;12.63;10.90;;;23.40;83.00;;;;;;5073943;28;20506;-49
2021/10/20 06:45:40;;;;;;;14.60;11.60;;;22.80;82.90;;;;;;5073040;28;20028;-51
2021/10/20 06:48:06;;;;;;;13.20;11.80;;;24.00;82.40;;;;;;5072124;28;20024;-50
2021/10/20 06:50:33;;;;;;;13.93;11.20;;;24.60;80.20;;;;;;5067666;28;20028;-50
2021/10/20 06:52:58;;;;;;;14.40;10.85;;;25.90;78.90;;;;;;5068173;28;20472;-47
2021/10/20 06:55:24;;;;;;;19.95;10.77;;;25.90;78.90;;;;;;5067742;28;20032;-49
2021/10/20 06:57:50;;;;;;;15.55;12.00;;;26.30;77.20;;;;;;5068123;28;20385;-50
2021/10/20 07:00:16;;;;;;;15.43;13.15;;;27.30;76.20;;;;;;5083136;28;20430;-46
2021/10/20 07:02:41;;;;;;;16.55;14.07;;;27.90;74.60;;;;;;5017694;28;20101;-48
2021/10/20 07:05:08;;;;;;;18.05;15.00;;;27.90;76.80;;;;;;5069351;28;20491;-46
2021/10/20 07:07:35;;;;;;;17.92;14.52;;;;;;;;;;5049111;28;20033;-45
2021/10/20 07:10:01;;;;;;;21.45;18.30;;;28.10;72.60;;;;;;5069221;28;20115;-49
2021/10/20 07:12:31;;;;;;;21.60;16.67;;;;;;;;;;5068768;28;20028;-52
2021/10/20 07:14:58;;;;;;;19.38;15.27;;;28.10;83.40;;;;;;5050064;28;20476;-57
2021/10/20 07:17:25;;;;;;;23.33;17.60;;;28.10;92.20;;;;;;5069284;28;20055;-53
2021/10/20 07:19:50;;;;;;;15.57;13.45;;;28.10;71.10;;;;;;5071223;28;20075;-49
2021/10/20 07:22:16;;;;;;;18.02;14.50;;;28.20;71.70;;;;;;5069971;28;20715;-50
2021/10/20 07:24:42;;;;;;;15.60;13.23;;;;;;;;;;5069825;28;20032;-53
2021/10/20 07:27:08;;;;;;;17.58;14.38;;;;;;;;;;5085766;28;20032;-53
2021/10/20 07:29:34;;;;;;;30.20;26.50;;;30.30;68.80;;;;;;5068851;28;20045;-53
2021/10/20 07:32:01;;;;;;;16.77;14.90;;;30.80;81.00;;;;;;5069931;28;20031;-53
2021/10/20 07:34:26;;;;;;;15.50;14.00;;;30.70;92.50;;;;;;5051118;28;20074;-53
2021/10/20 07:36:53;;;;;;;16.63;13.88;;;29.80;84.20;;;;;;5069625;28;20384;-55
2021/10/20 07:39:19;;;;;;;15.93;14.32;;;30.20;81.70;;;;;;5069101;28;20025;-54
2021/10/20 07:41:45;;;;;;;15.70;14.10;;;;;;;;;;5070288;28;20033;-53
2021/10/20 07:44:10;;;;;;;16.73;14.55;;;30.60;93.90;;;;;;5069744;28;20063;-54
2021/10/20 07:46:36;;;;;;;17.00;14.40;;;30.60;71.60;;;;;;5071520;28;20056;-53
2021/10/20 07:49:03;;;;;;;16.58;14.82;;;30.70;66.90;;;;;;5069868;28;20031;-53
2021/10/20 07:51:29;;;;;;;22.73;14.52;;;30.80;91.00;;;;;;5071397;28;20166;-53
2021/10/20 07:53:55;;;;;;;16.60;13.63;;;30.70;66.80;;;;;;5071627;28;20084;-53
2021/10/20 07:56:21;;;;;;;14.57;12.98;;;30.40;67.30;;;;;;5053040;28;20094;-53
2021/10/20 07:58:46;;;;;;;14.32;12.80;;;30.60;67.20;;;;;;5036842;28;20036;-54
2021/10/20 08:01:12;;;;;;;15.40;13.88;;;30.80;66.50;;;;;;5070527;28;20048;-53
2021/10/20 08:03:38;;;;;;;15.98;14.48;;;30.40;67.10;;;;;;5071444;28;20040;-53
2021/10/20 08:06:04;;;;;;;17.92;15.15;;;29.80;67.50;;;;;;5070731;28;20062;-53
2021/10/20 08:08:30;;;;;;;17.83;16.02;;;29.90;67.10;;;;;;5074349;28;20382;-53
2021/10/20 08:10:56;;;;;;;16.08;14.48;;;30.60;72.60;;;;;;5053770;28;20048;-53
2021/10/20 08:13:21;;;;;;;17.33;15.55;;;30.60;66.80;;;;;;5074788;28;20025;-53
2021/10/20 08:15:48;;;;;;;17.83;14.85;;;31.00;66.40;;;;;;5075028;28;20533;-52
2021/10/20 08:18:14;;;;;;;17.65;14.88;;;;;;;;;;5073347;28;20131;-54
2021/10/20 08:20:40;;;;;;;17.70;16.00;;;31.00;65.10;;;;;;5074129;28;20072;-50
2021/10/20 08:23:07;;;;;;;17.92;14.57;;;30.40;66.20;;;;;;5074883;28;20060;-50
2021/10/20 08:25:36;;;;;;;17.35;15.73;;;30.70;66.60;;;;;;5075705;28;20036;-51
2021/10/20 08:28:05;;;;;;;17.90;16.10;;;29.10;69.70;;;;;;5075094;28;20380;-47
2021/10/20 08:30:32;;;;;;;17.75;15.90;;;29.50;66.00;;;;;;5057395;28;20032;-47
2021/10/20 08:32:58;;;;;;;16.17;14.48;;;29.20;71.90;;;;;;5076001;28;20029;-48
2021/10/20 08:35:24;;;;;;;25.77;23.05;;;29.10;70.30;;;;;;5072311;28;20045;-47
2021/10/20 08:37:57;;;;;;;18.17;16.52;;;30.20;78.10;;;;;;5056592;28;20028;-49
2021/10/20 08:40:29;;;;;;;14.93;13.50;;;29.20;76.60;;;;;;5074286;28;20610;-48
2021/10/20 08:42:55;;;;;;;24.50;22.35;;;28.00;66.80;;;;;;5073400;28;20033;-49
2021/10/20 08:45:21;;;;;;;33.03;15.30;;;29.00;67.80;;;;;;5055451;28;20519;-47
2021/10/20 08:47:48;;;;;;;19.83;15.82;;;27.40;68.00;;;;;;5055545;28;20115;-47
2021/10/20 08:50:22;;;;;;;34.00;14.80;;;28.90;68.60;;;;;;5055954;28;20887;-48
2021/10/20 08:52:49;;;;;;;29.77;14.30;;;28.70;66.70;;;;;;5074292;28;20086;-49
2021/10/20 08:55:16;;;;;;;33.30;14.55;;;29.50;67.10;;;;;;5054199;28;20064;-50
2021/10/20 08:57:44;;;;;;;17.50;14.18;;;29.80;70.70;;;;;;5075123;28;20037;-49
2021/10/20 09:00:11;;;;;;;37.67;15.35;;;30.60;66.70;;;;;;5074610;28;20040;-48
2021/10/20 09:02:41;;;;;;;15.85;14.18;;;;;;;;;;5074478;28;20135;-47
2021/10/20 09:05:09;;;;;;;13.98;12.68;;;31.20;65.30;;;;;;5073887;28;20040;-46
2021/10/20 09:07:39;;;;;;;14.70;11.98;;;31.00;64.20;;;;;;5075159;28;20036;-47
2021/10/20 09:10:06;;;;;;;13.30;12.05;;;30.80;64.90;;;;;;5074407;28;20032;-47
2021/10/20 09:12:37;;;;;;;14.52;12.90;;;;;;;;;;5067530;28;20120;-48
2021/10/20 09:15:08;;;;;;;15.80;14.20;;;31.70;64.90;;;;;;5070273;28;20479;-49
2021/10/20 09:17:46;;;;;;;17.85;15.68;;;31.00;64.90;;;;;;5088961;28;20515;-48
2021/10/20 09:20:24;;;;;;;17.33;15.82;;;31.80;65.90;;;;;;5053858;28;20048;-50
2021/10/20 09:23:06;;;;;;;16.45;14.90;;;32.00;64.20;;;;;;5055351;28;20534;-48
2021/10/20 09:25:58;;;;;;;15.40;13.80;;;31.60;63.80;;;;;;5072329;28;20438;-48
2021/10/20 09:28:24;;;;;;;14.50;13.05;;;31.80;63.20;;;;;;5072954;28;20464;-48
2021/10/20 09:30:51;;;;;;;15.52;14.25;;;32.40;63.90;;;;;;5090770;28;20036;-47
2021/10/20 09:33:17;;;;;;;15.20;13.70;;;31.80;62.50;;;;;;5091744;28;20472;-47
2021/10/20 09:35:44;;;;;;;16.08;12.93;;;32.10;63.80;;;;;;5091563;28;20032;-49
2021/10/20 09:38:11;;;;;;;16.00;14.43;;;32.00;63.00;;;;;;5089779;28;20070;-47
2021/10/20 09:40:40;;;;;;;14.98;13.68;;;31.90;63.30;;;;;;5089176;28;20039;-48
2021/10/20 09:43:07;;;;;;;16.73;15.00;;;32.10;63.10;;;;;;5054230;28;20040;-48
2021/10/20 09:45:36;;;;;;;14.15;12.85;;;31.70;62.80;;;;;;5071214;28;20032;-48
2021/10/20 09:48:12;;;;;;;14.00;12.75;;;31.90;63.40;;;;;;5089609;28;20029;-47
2021/10/20 09:50:39;;;;;;;15.90;14.32;;;32.10;62.60;;;;;;5065495;28;20028;-48
2021/10/20 09:53:05;;;;;;;17.35;15.77;;;32.20;63.90;;;;;;5089201;28;20028;-47
2021/10/20 09:55:32;;;;;;;18.27;16.42;;;32.30;63.20;;;;;;5041364;28;20131;-50
2021/10/20 09:58:02;;;;;;;20.65;17.50;;;;;;;;;;5040387;28;20039;-51
2021/10/20 10:00:29;;;;;;;18.45;16.52;;;31.10;68.40;;;;;;5090067;28;20071;-51
2021/10/20 10:02:57;;;;;;;18.42;16.45;;;30.60;64.80;;;;;;5074115;28;20036;-50
2021/10/20 10:05:23;;;;;;;20.83;18.92;;;31.30;66.00;;;;;;5071171;28;20048;-49
2021/10/20 10:07:50;;;;;;;17.13;15.63;;;30.30;65.80;;;;;;5073078;28;20036;-51
2021/10/20 10:10:15;;;;;;;19.67;17.92;;;30.40;65.70;;;;;;5073272;28;20028;-50
2021/10/20 10:12:44;;;;;;;17.63;15.95;;;30.60;66.60;;;;;;5054608;28;20032;-49
2021/10/20 10:15:12;;;;;;;16.35;14.82;;;30.60;65.60;;;;;;5073704;28;20104;-49
2021/10/20 10:17:40;;;;;;;19.38;15.23;;;31.30;65.40;;;;;;5054964;28;20036;-50
2021/10/20 10:20:15;;;;;;;18.48;16.55;;;31.60;65.50;;;;;;5072149;28;20543;-48
2021/10/20 10:22:56;;;;;;;23.73;20.52;;;31.60;78.80;;;;;;5030907;28;20068;-49
2021/10/20 10:25:36;;;;;;;19.92;18.13;;;31.70;65.40;;;;;;5030273;28;20030;-50
2021/10/20 10:28:21;;;;;;;18.40;16.77;;;31.30;64.80;;;;;;5023725;28;20520;-48
2021/10/20 10:30:48;;;;;;;17.98;15.77;;;31.00;65.30;;;;;;5029930;28;20135;-50
2021/10/20 10:33:26;;;;;;;21.67;19.45;;;31.00;66.60;;;;;;5031912;28;20378;-51
2021/10/20 10:36:13;;;;;;;19.50;17.60;;;31.40;65.60;;;;;;5030930;28;20021;-51
2021/10/20 10:38:45;;;;;;;18.20;16.17;;;30.30;65.40;;;;;;5026316;28;20047;-49
2021/10/20 10:41:29;;;;;;;;;;;30.60;66.10;;;;;;5032080;28;20042;-49
2021/10/20 10:44:05;;;;;;;15.93;14.30;;;30.20;66.20;;;;;;5028487;28;19913;-48
2021/10/20 10:47:03;;;;;;;17.25;15.45;;;30.30;65.70;;;;;;5030087;28;20146;-50
2021/10/20 10:49:37;;;;;;;17.77;16.05;;;30.30;66.10;;;;;;5026949;28;20049;-49
2021/10/20 10:52:17;;;;;;;17.67;16.05;;;29.60;66.00;;;;;;5010030;28;20037;-49
2021/10/20 10:54:56;;;;;;;16.90;15.27;;;30.20;67.80;;;;;;5048887;28;20494;-47
2021/10/20 10:57:22;;;;;;;14.25;12.70;;;30.00;65.50;;;;;;5071065;28;20040;-50
2021/10/20 11:00:06;;;;;;;16.70;13.77;;;30.00;65.90;;;;;;5051791;28;20215;-51
2021/10/20 11:02:55;;;;;;;11.95;10.85;;;30.60;65.80;;;;;;5102123;27;20071;-49
2021/10/20 11:05:26;;;;;;;12.13;11.02;;;31.00;64.80;;;;;;5069767;28;20048;-51
2021/10/20 11:07:58;;;;;;;13.15;11.85;;;30.40;64.50;;;;;;5072035;28;20020;-48
2021/10/20 11:10:23;;;;;;;11.43;10.30;;;29.70;64.20;;;;;;5071156;28;20071;-48
2021/10/20 11:12:51;;;;;;;13.68;11.70;;;30.30;66.20;;;;;;5071570;28;20048;-49
2021/10/20 11:15:19;;;;;;;10.70;9.75;;;30.60;64.70;;;;;;5071406;28;20034;-49
2021/10/20 11:17:45;;;;;;;10.73;9.63;;;30.20;62.10;;;;;;5071711;28;20499;-50
2021/10/20 11:20:14;;;;;;;12.85;11.55;;;30.30;62.10;;;;;;5030614;28;20056;-49
2021/10/20 11:22:44;;;;;;;10.73;9.43;;;;;;;;;;5019415;28;20034;-48
2021/10/20 11:25:11;;;;;;;11.18;10.07;;;29.60;62.30;;;;;;5029289;28;20030;-50
2021/10/20 11:27:38;;;;;;;11.95;10.85;;;29.90;63.50;;;;;;5030116;28;20481;-50
2021/10/20 11:30:06;;;;;;;11.73;10.52;;;29.60;89.40;;;;;;5030448;28;20033;-51
2021/10/20 11:32:33;;;;;;;12.35;11.25;;;29.20;66.80;;;;;;5012944;28;20563;-48
2021/10/20 11:34:59;;;;;;;13.57;11.43;;;29.10;64.30;;;;;;5029742;28;20478;-50
2021/10/20 11:37:26;;;;;;;11.93;9.85;;;28.90;65.10;;;;;;5029629;28;20061;-47
2021/10/20 11:40:03;;;;;;;10.93;9.75;;;29.40;64.90;;;;;;5029015;28;20571;-50
2021/10/20 11:42:32;;;;;;;10.45;9.13;;;29.10;63.90;;;;;;5024917;28;20428;-47
2021/10/20 11:45:04;;;;;;;15.45;9.30;;;28.70;64.90;;;;;;5029771;28;20076;-49
2021/10/20 11:47:31;;;;;;;10.55;9.25;;;28.30;72.70;;;;;;5011366;28;20042;-51
2021/10/20 11:49:57;;;;;;;12.23;8.90;;;28.50;65.90;;;;;;5027216;28;20461;-50
2021/10/20 11:52:30;;;;;;;9.70;8.52;;;28.20;65.30;;;;;;5029042;28;20188;-49
2021/10/20 11:54:56;;;;;;;9.57;8.68;;;28.60;65.10;;;;;;5027659;28;20448;-49
2021/10/20 11:57:24;;;;;;;12.63;9.05;;;28.70;64.70;;;;;;5029385;28;20025;-48
2021/10/20 11:59:50;;;;;;;12.00;7.72;;;28.60;63.70;;;;;;5046195;28;20040;-48
2021/10/20 12:02:16;;;;;;;9.95;8.95;;;28.80;64.60;;;;;;5071135;28;20059;-48
2021/10/20 12:04:43;;;;;;;12.48;9.82;;;;;;;;;;5071072;28;20031;-50
2021/10/20 12:07:11;;;;;;;10.48;8.80;;;27.90;64.30;;;;;;5071048;28;20116;-50
2021/10/20 12:09:45;;;;;;;11.48;8.85;;;28.10;64.60;;;;;;5065569;28;20867;-50
2021/10/20 12:12:11;;;;;;;12.68;8.95;;;28.10;64.40;;;;;;5063576;28;20066;-49
2021/10/20 12:14:40;;;;;;;11.90;8.50;;;28.30;64.70;;;;;;5064385;28;20039;-49
2021/10/20 12:17:08;;;;;;;10.07;8.45;;;28.10;65.70;;;;;;5034763;28;20072;-49
2021/10/20 12:19:36;;;;;;;10.15;8.15;;;27.80;64.20;;;;;;5063354;28;20064;-49
2021/10/20 12:22:06;;;;;;;10.45;7.88;;;27.90;64.80;;;;;;5051845;28;20033;-51
2021/10/20 12:24:45;;;;;;;11.40;9.13;;;27.70;65.40;;;;;;5053773;28;20120;-48
2021/10/20 12:27:11;;;;;;;9.63;8.57;;;27.60;65.80;;;;;;5064943;28;20035;-53
2021/10/20 12:29:42;;;;;;;11.20;9.10;;;27.40;65.30;;;;;;5058368;28;20033;-52
2021/10/20 12:32:19;;;;;;;11.98;9.02;;;27.60;65.70;;;;;;5068262;28;20025;-57
2021/10/20 12:34:58;;;;;;;9.40;8.45;;;28.00;66.30;;;;;;5061840;28;20063;-56
2021/10/20 12:37:32;;;;;;;10.85;8.20;;;28.30;66.50;;;;;;5061034;28;20098;-52